createdAt,value
2022-09-09T00:00:55.334Z,4.30
2022-09-09T00:03:28.349Z,4.32
2022-09-09T00:05:58.962Z,4.30
2022-09-09T00:08:43.863Z,4.27
2022-09-09T00:11:14.947Z,4.34
2022-09-09T00:13:50.303Z,4.24
2022-09-09T00:16:28.716Z,4.30
2022-09-09T00:19:22.859Z,4.32
2022-09-09T00:22:15.277Z,4.33
2022-09-09T00:24:50.635Z,4.29
2022-09-09T00:27:31.249Z,4.32
2022-09-09T00:30:15.374Z,4.44
2022-09-09T00:32:43.299Z,4.30
2022-09-09T00:35:11.300Z,4.29
2022-09-09T00:37:39.933Z,4.30
2022-09-09T00:40:23.635Z,4.25
2022-09-09T00:43:08.005Z,4.27
2022-09-09T00:45:44.829Z,4.28
2022-09-09T00:48:13.583Z,4.22
2022-09-09T00:51:07.601Z,4.25
2022-09-09T00:53:38.774Z,4.27
2022-09-09T00:56:23.025Z,4.27
2022-09-09T00:59:09.588Z,4.27
2022-09-09T01:01:40.825Z,4.24
2022-09-09T01:04:17.962Z,4.30
2022-09-09T01:06:53.461Z,4.23
2022-09-09T01:09:33.669Z,4.21
2022-09-09T01:12:16.252Z,4.25
2022-09-09T01:14:51.954Z,4.33
2022-09-09T01:17:24.834Z,4.25
2022-09-09T01:19:59.807Z,4.37
2022-09-09T01:22:58.705Z,4.31
2022-09-09T01:26:05.520Z,4.31
2022-09-09T01:28:36.899Z,4.29
2022-09-09T01:31:09.308Z,4.27
2022-09-09T01:33:38.508Z,4.30
2022-09-09T01:36:13.407Z,4.33
2022-09-09T01:38:42.124Z,4.29
2022-09-09T01:41:10.235Z,4.28
2022-09-09T01:43:39.458Z,4.28
2022-09-09T01:46:07.441Z,4.27
2022-09-09T01:48:37.493Z,4.20
2022-09-09T01:51:06.202Z,4.24
2022-09-09T01:53:33.958Z,4.28
2022-09-09T01:56:11.447Z,4.17
2022-09-09T01:59:07.899Z,4.30
2022-09-09T02:01:42.894Z,4.22
2022-09-09T02:04:38.666Z,4.18
2022-09-09T02:07:41.396Z,4.25
2022-09-09T02:10:21.278Z,4.24
2022-09-09T02:13:06.183Z,4.21
2022-09-09T02:15:44.054Z,4.20
2022-09-09T02:18:16.156Z,4.18
2022-09-09T02:20:47.726Z,4.20
2022-09-09T02:23:16.548Z,4.20
2022-09-09T02:25:47.600Z,4.23
2022-09-09T02:28:18.205Z,4.19
2022-09-09T02:30:48.498Z,4.20
2022-09-09T02:33:17.417Z,4.30
2022-09-09T02:35:47.650Z,4.17
2022-09-09T02:38:17.833Z,4.13
2022-09-09T02:40:47.021Z,4.11
2022-09-09T02:43:19.999Z,4.03
2022-09-09T02:45:56.361Z,3.99
2022-09-09T02:48:58.478Z,3.92
2022-09-09T02:51:56.452Z,3.89
2022-09-09T02:54:33.088Z,3.78
2022-09-09T02:57:10.043Z,3.75
2022-09-09T02:59:41.741Z,3.57
2022-09-09T03:02:11.480Z,3.48
2022-09-09T03:04:40.362Z,3.38
2022-09-09T03:07:08.720Z,3.43
2022-09-09T03:09:36.943Z,3.29
2022-09-09T03:12:08.422Z,3.22
2022-09-09T03:14:36.665Z,3.18
2022-09-09T03:17:04.612Z,3.21
2022-09-09T03:19:33.349Z,3.25
2022-09-09T03:22:01.642Z,3.16
2022-09-09T03:24:31.258Z,3.05
2022-09-09T03:26:59.227Z,3.01
2022-09-09T03:29:27.715Z,3.08
2022-09-09T03:31:56.120Z,3.15
2022-09-09T03:34:23.956Z,3.08
2022-09-09T03:36:52.165Z,3.14
2022-09-09T03:39:19.964Z,3.14
2022-09-09T03:41:49.626Z,3.14
2022-09-09T03:44:18.438Z,3.16
2022-09-09T03:46:46.103Z,3.28
2022-09-09T03:49:15.362Z,3.40
2022-09-09T03:51:43.870Z,3.49
2022-09-09T03:54:12.345Z,3.31
2022-09-09T03:56:42.698Z,3.21
2022-09-09T03:59:11.444Z,3.36
2022-09-09T04:01:39.276Z,3.46
2022-09-09T04:04:08.977Z,3.49
2022-09-09T04:06:36.779Z,3.55
2022-09-09T04:09:04.599Z,3.76
2022-09-09T04:11:33.124Z,3.75
2022-09-09T04:14:01.354Z,3.89
2022-09-09T04:16:30.556Z,4.12
2022-09-09T04:18:59.891Z,4.35
2022-09-09T04:21:28.314Z,4.23
2022-09-09T04:23:56.419Z,4.51
2022-09-09T04:26:26.197Z,4.87
2022-09-09T04:28:53.907Z,4.72
2022-09-09T04:31:24.925Z,4.51
2022-09-09T04:33:54.131Z,4.53
2022-09-09T04:36:22.426Z,4.66
2022-09-09T04:38:50.710Z,4.72
2022-09-09T04:41:19.570Z,5.28
2022-09-09T04:43:48.691Z,5.77
2022-09-09T04:46:19.834Z,5.55
2022-09-09T04:48:49.934Z,5.85
2022-09-09T04:51:18.129Z,5.59
2022-09-09T04:53:48.104Z,6.66
2022-09-09T04:56:19.319Z,5.88
2022-09-09T04:58:47.668Z,6.45
2022-09-09T05:01:21.020Z,5.89
2022-09-09T05:03:50.265Z,6.65
2022-09-09T05:06:20.536Z,7.19
2022-09-09T05:08:50.667Z,7.34
2022-09-09T05:11:27.021Z,7.93
2022-09-09T05:13:55.637Z,8.49
2022-09-09T05:16:24.577Z,7.27
2022-09-09T05:18:52.653Z,7.51
2022-09-09T05:21:24.243Z,7.05
2022-09-09T05:23:52.767Z,7.79
2022-09-09T05:26:22.740Z,8.00
2022-09-09T05:28:50.878Z,8.09
2022-09-09T05:31:20.413Z,8.07
2022-09-09T05:33:50.641Z,9.50
2022-09-09T05:36:21.605Z,9.13
2022-09-09T05:38:51.241Z,8.08
2022-09-09T05:41:21.229Z,8.88
2022-09-09T05:43:50.125Z,8.79
2022-09-09T05:46:23.695Z,9.08
2022-09-09T05:48:53.386Z,10.38
2022-09-09T05:51:27.846Z,10.42
2022-09-09T05:53:59.694Z,9.08
2022-09-09T05:56:30.264Z,9.22
2022-09-09T05:59:01.276Z,11.30
2022-09-09T06:01:32.728Z,11.80
2022-09-09T06:04:01.654Z,11.83
2022-09-09T06:06:37.942Z,12.13
2022-09-09T06:09:10.841Z,13.53
2022-09-09T06:11:41.317Z,11.50
2022-09-09T06:14:10.021Z,12.14
2022-09-09T06:16:43.548Z,9.69
2022-09-09T06:19:14.043Z,9.55
2022-09-09T06:21:42.408Z,10.12
2022-09-09T06:24:10.510Z,10.59
2022-09-09T06:26:43.852Z,10.54
2022-09-09T06:29:12.569Z,9.56
2022-09-09T06:31:41.466Z,11.08
2022-09-09T06:34:10.645Z,10.11
2022-09-09T06:36:40.271Z,9.98
2022-09-09T06:39:14.866Z,13.05
2022-09-09T06:41:44.031Z,13.21
2022-09-09T06:44:16.566Z,14.85
2022-09-09T06:46:49.234Z,15.37
2022-09-09T06:49:17.521Z,12.48
2022-09-09T06:51:45.877Z,12.17
2022-09-09T06:54:14.024Z,12.89
2022-09-09T06:56:46.917Z,12.68
2022-09-09T06:59:18.068Z,10.66
2022-09-09T07:01:46.716Z,11.03
2022-09-09T07:04:15.143Z,9.70
2022-09-09T07:06:45.636Z,10.87
2022-09-09T07:09:17.176Z,11.47
2022-09-09T07:11:47.507Z,12.60
2022-09-09T07:14:16.691Z,12.91
2022-09-09T07:16:47.123Z,12.55
2022-09-09T07:19:16.017Z,10.67
2022-09-09T07:21:44.940Z,11.30
2022-09-09T07:24:13.856Z,11.60
2022-09-09T07:26:42.796Z,14.66
2022-09-09T07:29:10.654Z,15.24
2022-09-09T07:31:41.281Z,13.03
2022-09-09T07:34:09.994Z,11.67
2022-09-09T07:36:40.494Z,10.07
2022-09-09T07:39:14.169Z,9.83
2022-09-09T07:41:45.832Z,10.53
2022-09-09T07:44:17.624Z,9.85
2022-09-09T07:46:46.910Z,10.10
2022-09-09T07:49:16.343Z,11.11
2022-09-09T07:51:46.983Z,11.07
2022-09-09T07:54:18.664Z,11.13
2022-09-09T07:56:47.840Z,10.51
2022-09-09T07:59:16.004Z,10.18
2022-09-09T08:01:46.833Z,11.14
2022-09-09T08:04:17.887Z,12.98
2022-09-09T08:06:48.378Z,15.12
2022-09-09T08:09:18.511Z,15.44
2022-09-09T08:11:48.310Z,17.04
2022-09-09T08:14:19.182Z,17.11
2022-09-09T08:16:49.427Z,16.34
2022-09-09T08:19:18.864Z,15.04
2022-09-09T08:21:47.218Z,15.76
2022-09-09T08:24:16.897Z,17.79
2022-09-09T08:26:50.516Z,13.15
2022-09-09T08:29:19.516Z,14.65
2022-09-09T08:31:55.688Z,12.57
2022-09-09T08:34:24.114Z,14.35
2022-09-09T08:36:52.897Z,16.72
2022-09-09T08:39:23.149Z,14.59
2022-09-09T08:42:07.850Z,12.17
2022-09-09T08:44:48.911Z,11.08
2022-09-09T08:47:48.580Z,14.84
2022-09-09T08:50:17.057Z,13.77
2022-09-09T08:53:17.657Z,15.73
2022-09-09T08:58:48.179Z,16.15
2022-09-09T09:01:38.445Z,16.63
2022-09-09T09:04:54.288Z,14.56
2022-09-09T09:08:05.477Z,16.71
2022-09-09T09:10:55.686Z,14.88
2022-09-09T09:13:43.996Z,19.01
2022-09-09T09:16:33.607Z,14.25
2022-09-09T09:19:02.203Z,13.41
2022-09-09T09:21:31.360Z,18.19
2022-09-09T09:24:01.558Z,18.19
2022-09-09T09:26:36.558Z,19.44
2022-09-09T09:29:14.525Z,18.61
2022-09-09T09:31:55.920Z,18.93
2022-09-09T09:34:25.709Z,15.33
2022-09-09T09:37:06.318Z,13.19
2022-09-09T09:42:28.618Z,13.21
2022-09-09T09:44:56.778Z,14.15
2022-09-09T09:47:25.024Z,16.43
2022-09-09T09:50:03.544Z,16.00
2022-09-09T09:52:33.714Z,16.55
2022-09-09T09:55:08.455Z,15.86
2022-09-09T09:57:37.658Z,13.47
2022-09-09T10:00:10.275Z,12.12
2022-09-09T10:02:44.951Z,14.21
2022-09-09T10:05:32.630Z,16.17
2022-09-09T10:08:12.333Z,16.32
2022-09-09T10:11:04.348Z,14.59
2022-09-09T10:13:52.181Z,15.71
2022-09-09T10:16:53.670Z,16.18
2022-09-09T10:19:34.866Z,16.31
2022-09-09T10:22:07.993Z,13.67
2022-09-09T10:24:59.114Z,14.82
2022-09-09T10:28:01.545Z,14.01
2022-09-09T10:31:02.997Z,13.32
2022-09-09T10:33:52.272Z,12.20
2022-09-09T10:36:26.440Z,14.19
2022-09-09T10:39:14.829Z,13.63
2022-09-09T10:42:18.066Z,13.06
2022-09-09T10:45:05.934Z,19.24
2022-09-09T10:47:58.577Z,23.30
2022-09-09T10:51:05.104Z,17.92
2022-09-09T10:53:47.802Z,16.45
2022-09-09T10:56:19.989Z,15.66
2022-09-09T10:59:04.230Z,14.46
2022-09-09T11:01:41.166Z,12.82
2022-09-09T11:04:20.761Z,14.78
2022-09-09T11:06:55.629Z,13.38
2022-09-09T11:09:27.819Z,14.61
2022-09-09T11:11:58.070Z,16.28
2022-09-09T11:14:34.112Z,18.50
2022-09-09T11:17:12.252Z,14.50
2022-09-09T11:19:44.058Z,14.09
2022-09-09T11:22:22.631Z,13.05
2022-09-09T11:24:58.284Z,14.14
2022-09-09T11:27:42.090Z,14.81
2022-09-09T11:30:51.644Z,15.77
2022-09-09T11:33:38.877Z,16.47
2022-09-09T11:36:15.922Z,15.92
2022-09-09T11:38:52.552Z,15.93
2022-09-09T11:41:22.960Z,15.56
2022-09-09T11:43:54.835Z,14.56
2022-09-09T11:46:35.115Z,14.47
2022-09-09T11:49:06.295Z,13.52
2022-09-09T11:51:36.598Z,12.42
2022-09-09T11:54:40.647Z,12.93
2022-09-09T11:57:24.125Z,12.05
2022-09-09T11:59:56.454Z,11.68
2022-09-09T12:02:27.961Z,11.74
2022-09-09T12:05:09.892Z,14.12
2022-09-09T12:07:43.743Z,14.43
2022-09-09T12:10:37.620Z,15.20
2022-09-09T12:13:26.871Z,14.81
2022-09-09T12:16:03.914Z,14.26
2022-09-09T12:18:40.614Z,13.56
2022-09-09T12:21:42.079Z,12.62
2022-09-09T12:24:14.453Z,13.38
2022-09-09T12:26:54.507Z,13.23
2022-09-09T12:29:48.378Z,14.47
2022-09-09T12:32:21.669Z,15.30
2022-09-09T12:34:52.193Z,17.20
2022-09-09T12:37:30.866Z,18.42
2022-09-09T12:40:00.779Z,18.53
2022-09-09T12:42:31.569Z,15.98
2022-09-09T12:45:02.103Z,14.56
2022-09-09T12:47:42.004Z,13.24
2022-09-09T12:50:29.063Z,13.27
2022-09-09T12:53:03.273Z,13.05
2022-09-09T12:55:34.925Z,14.95
2022-09-09T12:58:06.851Z,16.12
2022-09-09T13:00:36.168Z,16.79
2022-09-09T13:03:18.216Z,18.93
2022-09-09T13:05:48.094Z,19.70
2022-09-09T13:08:21.113Z,21.48
2022-09-09T13:11:00.274Z,22.87
2022-09-09T13:13:42.406Z,22.93
2022-09-09T13:16:24.323Z,23.42
2022-09-09T13:18:52.974Z,19.56
2022-09-09T13:21:21.065Z,18.04
2022-09-09T13:23:53.398Z,17.57
2022-09-09T13:26:28.928Z,16.58
2022-09-09T13:29:08.930Z,14.79
2022-09-09T13:31:38.596Z,13.53
2022-09-09T13:34:31.547Z,13.79
2022-09-09T13:37:08.850Z,13.60
2022-09-09T13:39:38.858Z,12.61
2022-09-09T13:42:08.377Z,12.42
2022-09-09T13:44:39.964Z,12.69
2022-09-09T13:47:14.206Z,11.49
2022-09-09T13:49:42.501Z,11.05
2022-09-09T13:52:18.157Z,11.23
2022-09-09T13:54:53.414Z,10.92
2022-09-09T13:57:25.715Z,10.63
2022-09-09T14:00:11.379Z,10.67
2022-09-09T14:02:40.448Z,12.54
2022-09-09T14:05:08.233Z,15.18
2022-09-09T14:07:36.004Z,16.56
2022-09-09T14:10:04.421Z,16.49
2022-09-09T14:12:32.310Z,18.01
2022-09-09T14:15:01.164Z,18.96
2022-09-09T14:17:31.674Z,18.67
2022-09-09T14:19:59.820Z,19.69
2022-09-09T14:22:27.671Z,21.06
2022-09-09T14:24:55.840Z,21.46
2022-09-09T14:27:23.598Z,21.64
2022-09-09T14:29:51.288Z,21.63
2022-09-09T14:32:19.406Z,21.21
2022-09-09T14:34:47.178Z,19.77
2022-09-09T14:37:15.135Z,20.94
2022-09-09T14:39:45.406Z,20.18
2022-09-09T14:42:13.257Z,20.86
2022-09-09T14:44:42.027Z,19.53
2022-09-09T14:47:10.499Z,17.94
2022-09-09T14:49:40.593Z,16.84
2022-09-09T14:52:10.935Z,17.29
2022-09-09T14:54:38.678Z,16.50
2022-09-09T14:57:06.539Z,15.52
2022-09-09T14:59:35.693Z,17.21
2022-09-09T15:02:05.616Z,17.19
2022-09-09T15:04:33.694Z,17.70
2022-09-09T15:07:01.971Z,17.86
2022-09-09T15:09:30.493Z,17.18
2022-09-09T15:11:58.261Z,16.13
2022-09-09T15:14:27.411Z,15.30
2022-09-09T15:16:55.326Z,15.21
2022-09-09T15:19:23.299Z,14.21
2022-09-09T15:21:51.503Z,14.15
2022-09-09T15:24:19.294Z,14.13
2022-09-09T15:26:47.094Z,13.76
2022-09-09T15:29:15.213Z,13.42
2022-09-09T15:31:43.000Z,12.39
2022-09-09T15:34:10.805Z,11.78
2022-09-09T15:36:40.974Z,11.35
2022-09-09T15:39:14.122Z,10.71
2022-09-09T15:41:46.569Z,10.35
2022-09-09T15:44:14.591Z,10.82
2022-09-09T15:46:50.052Z,10.38
2022-09-09T15:49:23.447Z,10.74
2022-09-09T15:51:56.768Z,10.86
2022-09-09T15:54:25.336Z,10.81
2022-09-09T15:56:58.391Z,10.47
2022-09-09T15:59:29.200Z,10.39
2022-09-09T16:04:43.408Z,9.89
2022-09-09T16:07:11.122Z,10.00
2022-09-09T16:09:39.128Z,9.90
2022-09-09T16:12:13.247Z,9.81
2022-09-09T16:14:40.967Z,10.15
2022-09-09T16:17:09.293Z,10.02
2022-09-09T16:19:37.199Z,10.06
2022-09-09T16:22:05.834Z,9.80
2022-09-09T16:24:33.936Z,9.70
2022-09-09T16:27:01.709Z,9.47
2022-09-09T16:29:29.695Z,9.31
2022-09-09T16:32:02.841Z,9.14
2022-09-09T16:34:32.291Z,8.76
2022-09-09T16:37:00.647Z,9.43
2022-09-09T16:39:28.439Z,9.21
2022-09-09T16:41:56.261Z,9.15
2022-09-09T16:44:24.465Z,9.11
2022-09-09T16:46:56.849Z,9.00
2022-09-09T16:49:29.719Z,8.78
2022-09-09T16:52:00.272Z,8.45
2022-09-09T16:54:31.388Z,8.63
2022-09-09T16:57:00.821Z,8.69
2022-09-09T16:59:29.118Z,8.42
2022-09-09T17:01:57.057Z,8.18
2022-09-09T17:04:29.237Z,7.73
2022-09-09T17:06:58.668Z,7.58
2022-09-09T17:09:30.533Z,7.38
2022-09-09T17:11:59.737Z,7.57
2022-09-09T17:14:27.664Z,7.36
2022-09-09T17:16:55.497Z,7.21
2022-09-09T17:19:23.596Z,7.12
2022-09-09T17:22:16.630Z,7.29
2022-09-09T17:24:40.132Z,6.98
2022-09-09T17:27:08.342Z,6.95
2022-09-09T17:29:37.193Z,6.84
2022-09-09T17:32:06.659Z,6.62
2022-09-09T17:34:36.225Z,6.71
2022-09-09T17:37:04.299Z,6.75
2022-09-09T17:39:32.595Z,6.54
2022-09-09T17:42:00.540Z,6.54
2022-09-09T17:44:33.555Z,6.36
2022-09-09T17:47:02.195Z,6.36
2022-09-09T17:49:29.951Z,6.29
2022-09-09T17:51:57.952Z,6.39
2022-09-09T17:54:26.114Z,6.36
2022-09-09T17:56:53.899Z,6.36
2022-09-09T17:59:21.743Z,6.51
2022-09-09T18:01:51.259Z,7.55
2022-09-09T18:04:20.232Z,7.78
2022-09-09T18:06:50.964Z,8.12
2022-09-09T18:09:23.518Z,8.04
2022-09-09T18:11:54.799Z,8.17
2022-09-09T18:14:26.625Z,8.04
2022-09-09T18:16:54.723Z,7.51
2022-09-09T18:19:25.836Z,7.00
2022-09-09T18:21:56.427Z,6.95
2022-09-09T18:24:27.066Z,6.58
2022-09-09T18:26:55.513Z,6.65
2022-09-09T18:29:25.834Z,6.35
2022-09-09T18:31:55.258Z,6.82
2022-09-09T18:34:26.130Z,7.38
2022-09-09T18:36:56.291Z,7.48
2022-09-09T18:39:28.832Z,7.66
2022-09-09T18:42:00.818Z,7.52
2022-09-09T18:44:36.852Z,7.56
2022-09-09T18:47:04.707Z,7.50
2022-09-09T18:49:33.605Z,7.36
2022-09-09T18:52:03.072Z,7.05
2022-09-09T18:54:31.635Z,6.99
2022-09-09T18:57:01.116Z,7.32
2022-09-09T18:59:29.152Z,7.43
2022-09-09T19:01:58.433Z,7.36
2022-09-09T19:04:27.668Z,7.05
2022-09-09T19:06:58.415Z,6.90
2022-09-09T19:09:29.840Z,7.08
2022-09-09T19:11:59.720Z,7.08
2022-09-09T19:14:28.335Z,6.59
2022-09-09T19:16:56.688Z,6.28
2022-09-09T19:19:28.031Z,6.59
2022-09-09T19:21:59.014Z,6.73
2022-09-09T19:24:32.576Z,6.62
2022-09-09T19:27:03.607Z,6.52
2022-09-09T19:29:35.015Z,6.23
2022-09-09T19:33:13.063Z,5.94
2022-09-09T19:34:52.874Z,5.77
2022-09-09T19:37:21.294Z,5.91
2022-09-09T19:39:50.798Z,5.34
2022-09-09T19:42:18.754Z,5.75
2022-09-09T19:44:47.062Z,5.83
2022-09-09T19:47:15.360Z,5.77
2022-09-09T19:49:47.064Z,5.10
2022-09-09T19:52:17.345Z,5.19
2022-09-09T19:54:46.990Z,5.09
2022-09-09T19:57:15.268Z,4.79
2022-09-09T19:59:43.177Z,5.12
2022-09-09T20:02:15.995Z,5.43
2022-09-09T20:04:44.998Z,5.59
2022-09-09T20:07:13.002Z,5.75
2022-09-09T20:09:40.794Z,5.70
2022-09-09T20:12:09.008Z,5.61
2022-09-09T20:14:39.646Z,5.58
2022-09-09T20:17:09.308Z,5.56
2022-09-09T20:19:37.054Z,5.47
2022-09-09T20:22:04.910Z,5.54
2022-09-09T20:24:33.099Z,5.39
2022-09-09T20:27:00.801Z,5.10
2022-09-09T20:29:28.692Z,4.87
2022-09-09T20:31:56.974Z,4.49
2022-09-09T20:34:27.484Z,4.32
2022-09-09T20:36:56.415Z,4.29
2022-09-09T20:39:24.584Z,4.29
2022-09-09T20:41:52.586Z,4.27
2022-09-09T20:44:24.492Z,4.39
2022-09-09T20:47:02.968Z,4.07
2022-09-09T20:49:31.304Z,3.83
2022-09-09T20:51:59.941Z,3.79
2022-09-09T20:54:30.871Z,4.02
2022-09-09T20:57:00.701Z,3.92
2022-09-09T20:59:31.319Z,3.86
2022-09-09T21:02:09.713Z,3.57
2022-09-09T21:04:38.753Z,3.38
2022-09-09T21:07:07.804Z,3.15
2022-09-09T21:09:35.734Z,3.13
2022-09-09T21:12:03.718Z,3.30
2022-09-09T21:14:32.837Z,3.23
2022-09-09T21:17:00.581Z,3.09
2022-09-09T21:19:28.685Z,3.22
2022-09-09T21:21:57.445Z,3.37
2022-09-09T21:24:25.170Z,3.41
2022-09-09T21:26:55.594Z,3.38
2022-09-09T21:29:24.442Z,3.00
2022-09-09T21:31:53.414Z,2.96
2022-09-09T21:34:21.207Z,2.88
2022-09-09T21:36:49.537Z,2.90
2022-09-09T21:39:17.636Z,3.38
2022-09-09T21:41:45.573Z,3.24
2022-09-09T21:44:14.763Z,2.96
2022-09-09T21:46:44.160Z,2.94
2022-09-09T21:49:12.037Z,2.62
2022-09-09T21:54:25.945Z,2.67
2022-09-09T21:56:54.696Z,3.38
2022-09-09T21:59:22.408Z,3.71
2022-09-09T22:01:50.323Z,3.80
2022-09-09T22:04:18.610Z,3.74
2022-09-09T22:06:46.302Z,3.77
2022-09-09T22:09:14.104Z,3.72
2022-09-09T22:11:42.696Z,3.56
2022-09-09T22:14:10.382Z,3.62
2022-09-09T22:16:38.072Z,3.60
2022-09-09T22:19:09.356Z,3.41
2022-09-09T22:21:37.077Z,3.52
2022-09-09T22:24:05.951Z,3.34
2022-09-09T22:26:36.579Z,3.08
2022-09-09T22:29:05.699Z,2.84
2022-09-09T22:31:34.721Z,2.67
2022-09-09T22:34:03.759Z,2.69
2022-09-09T22:36:33.013Z,2.68
2022-09-09T22:39:02.242Z,2.50
2022-09-09T22:41:30.405Z,2.47
2022-09-09T22:43:59.175Z,2.54
2022-09-09T22:46:27.063Z,2.70
2022-09-09T22:48:55.319Z,2.64
2022-09-09T22:51:23.118Z,2.69
2022-09-09T22:53:50.910Z,2.72
2022-09-09T22:56:20.620Z,2.72
2022-09-09T22:58:52.914Z,2.66
2022-09-09T23:01:21.320Z,2.62
2022-09-09T23:03:50.798Z,2.67
2022-09-09T23:06:22.823Z,2.67
2022-09-09T23:09:02.560Z,2.61
2022-09-09T23:11:34.391Z,2.57
2022-09-09T23:14:04.945Z,2.58
2022-09-09T23:16:39.963Z,2.55
2022-09-09T23:19:11.077Z,2.48
2022-09-09T23:24:26.483Z,2.43
2022-09-09T23:26:54.392Z,2.43
2022-09-09T23:29:22.163Z,2.47
2022-09-09T23:31:50.285Z,2.58
2022-09-09T23:34:18.394Z,2.67
2022-09-09T23:36:46.370Z,2.79
2022-09-09T23:39:14.483Z,2.70
2022-09-09T23:41:42.295Z,2.58
2022-09-09T23:44:12.397Z,2.50
2022-09-09T23:46:40.632Z,2.39
2022-09-09T23:49:09.949Z,2.33
2022-09-09T23:51:40.176Z,2.17
2022-09-09T23:54:10.256Z,2.13
2022-09-09T23:56:40.774Z,2.32
2022-09-09T23:59:09.795Z,2.29
